Time;durP1;ratioP1;P1;durP2;ratioP2;P2;SDS_P1;SDS_P2;PMS_P1;PMS_P2;Temp;Humidity;BMP_temperature;BMP_pressure;BME280_temperature;BME280_humidity;BME280_pressure;Samples;Min_cycle;Max_cycle;Signal;HPM_P1;HPM_P2
2022/12/05 00:00:20;;;;;;;34.63;16.95;;;5.10;99.90;;;;;;5113524;28;20048;-75
2022/12/05 00:02:45;;;;;;;34.22;16.65;;;5.20;99.90;;;;;;5113350;28;20047;-75
2022/12/05 00:05:11;;;;;;;38.33;19.67;;;5.20;99.90;;;;;;5114664;28;20053;-75
2022/12/05 00:07:38;;;;;;;42.78;18.45;;;5.10;99.90;;;;;;5114555;28;20047;-75
2022/12/05 00:10:05;;;;;;;35.45;18.13;;;5.10;99.90;;;;;;5113550;28;20035;-75
2022/12/05 00:12:31;;;;;;;32.45;16.05;;;5.10;99.90;;;;;;5114374;28;20486;-75
2022/12/05 00:14:56;;;;;;;41.22;18.63;;;5.10;99.90;;;;;;5114269;28;20039;-75
2022/12/05 00:17:22;;;;;;;38.03;18.23;;;5.00;99.90;;;;;;5114283;28;20053;-75
2022/12/05 00:19:48;;;;;;;39.50;19.13;;;5.10;99.90;;;;;;5114060;28;20040;-75
2022/12/05 00:22:13;;;;;;;38.67;18.50;;;5.00;99.90;;;;;;5114220;28;20127;-75
2022/12/05 00:24:39;;;;;;;43.05;18.83;;;5.00;99.90;;;;;;5113336;28;20138;-75
2022/12/05 00:27:05;;;;;;;41.50;20.10;;;5.00;99.90;;;;;;5114037;28;20031;-75
2022/12/05 00:29:30;;;;;;;40.50;19.00;;;5.00;99.90;;;;;;5112843;28;20044;-75
2022/12/05 00:31:56;;;;;;;39.08;17.58;;;5.10;99.90;;;;;;5114248;28;20035;-75
2022/12/05 00:34:22;;;;;;;40.58;19.75;;;5.00;99.90;;;;;;5112899;28;20051;-75
2022/12/05 00:36:47;;;;;;;40.05;18.30;;;5.00;99.90;;;;;;5112850;28;20094;-75
2022/12/05 00:39:14;;;;;;;42.53;19.70;;;5.00;99.90;;;;;;5114127;28;20167;-75
2022/12/05 00:41:40;;;;;;;42.83;18.70;;;5.00;99.90;;;;;;5114085;28;20141;-75
2022/12/05 00:44:07;;;;;;;39.97;19.08;;;5.10;99.90;;;;;;5112746;28;20071;-75
2022/12/05 00:46:34;;;;;;;38.83;18.38;;;5.00;99.90;;;;;;5112702;28;20494;-75
2022/12/05 00:49:01;;;;;;;47.58;19.83;;;5.10;99.90;;;;;;5113941;28;20571;-75
2022/12/05 00:51:30;;;;;;;45.75;19.98;;;5.00;99.90;;;;;;5117747;28;20039;-75
2022/12/05 00:54:05;;;;;;;43.47;19.55;;;5.00;99.90;;;;;;5118289;28;20047;-75
2022/12/05 00:56:31;;;;;;;40.72;18.95;;;5.00;99.90;;;;;;5117061;28;20100;-75
2022/12/05 00:58:58;;;;;;;38.67;17.63;;;5.00;99.90;;;;;;5116679;28;20052;-75
2022/12/05 01:01:27;;;;;;;36.13;18.98;;;5.00;99.90;;;;;;5118178;28;20074;-75
2022/12/05 01:03:55;;;;;;;39.58;16.95;;;5.00;99.90;;;;;;5118090;28;20052;-75
2022/12/05 01:06:22;;;;;;;40.40;17.75;;;5.00;99.90;;;;;;5118097;28;20101;-75
2022/12/05 01:08:48;;;;;;;34.13;14.32;;;5.00;99.90;;;;;;5118017;28;20119;-75
2022/12/05 01:11:15;;;;;;;41.92;16.92;;;5.10;99.90;;;;;;5118043;28;20088;-75
2022/12/05 01:13:42;;;;;;;32.17;14.60;;;5.00;99.90;;;;;;5117811;28;20043;-75
2022/12/05 01:16:18;;;;;;;33.72;15.27;;;5.10;99.90;;;;;;5117948;28;20043;-75
2022/12/05 01:18:43;;;;;;;29.52;13.45;;;5.10;99.90;;;;;;5116855;28;20051;-75
2022/12/05 01:21:09;;;;;;;31.30;13.20;;;5.10;99.90;;;;;;5117374;28;20411;-75
2022/12/05 01:23:35;;;;;;;29.00;13.20;;;5.20;99.90;;;;;;5116164;28;20059;-75
2022/12/05 01:26:06;;;;;;;28.85;14.88;;;5.30;99.90;;;;;;5116335;28;20081;-75
2022/12/05 01:28:32;;;;;;;32.13;14.70;;;5.20;99.90;;;;;;5116626;28;20055;-75
2022/12/05 01:31:02;;;;;;;27.98;12.75;;;5.30;99.90;;;;;;5116302;28;20532;-75
2022/12/05 01:33:28;;;;;;;29.48;12.75;;;5.30;99.90;;;;;;5116285;28;20039;-75
2022/12/05 01:35:54;;;;;;;27.13;12.93;;;5.40;99.90;;;;;;5116256;28;20046;-75
2022/12/05 01:38:19;;;;;;;27.08;12.52;;;5.30;99.90;;;;;;5116031;28;20142;-75
2022/12/05 01:40:45;;;;;;;27.45;11.13;;;5.40;99.90;;;;;;5117453;28;20063;-75
2022/12/05 01:43:14;;;;;;;26.08;11.02;;;5.40;99.90;;;;;;5115974;28;20497;-75
2022/12/05 01:45:42;;;;;;;28.35;11.30;;;5.50;99.90;;;;;;5117332;28;20173;-75
2022/12/05 01:48:18;;;;;;;26.45;11.60;;;5.40;99.90;;;;;;5116014;28;20092;-75
2022/12/05 01:50:45;;;;;;;23.08;10.40;;;5.40;99.90;;;;;;5117729;28;20048;-75
2022/12/05 01:53:11;;;;;;;22.60;9.70;;;5.40;99.90;;;;;;5117063;28;20467;-75
2022/12/05 01:55:37;;;;;;;22.30;9.68;;;5.40;99.90;;;;;;5116982;28;20069;-75
2022/12/05 01:58:05;;;;;;;20.42;10.18;;;5.40;99.90;;;;;;5115817;28;20105;-75
2022/12/05 02:00:31;;;;;;;25.08;9.80;;;5.50;99.90;;;;;;5116809;28;20068;-75
2022/12/05 02:03:06;;;;;;;25.55;10.65;;;5.50;99.90;;;;;;5114551;28;20087;-75
2022/12/05 02:05:34;;;;;;;24.25;10.50;;;5.50;99.90;;;;;;5115584;28;20196;-75
2022/12/05 02:08:04;;;;;;;23.70;9.82;;;5.50;99.90;;;;;;5116757;28;20425;-75
2022/12/05 02:10:35;;;;;;;26.65;9.13;;;5.50;99.90;;;;;;5116779;28;20047;-75
2022/12/05 02:13:15;;;;;;;22.83;9.48;;;5.50;99.90;;;;;;5115597;28;20048;-75
2022/12/05 02:15:51;;;;;;;23.77;8.07;;;5.50;99.90;;;;;;5115385;28;20094;-75
2022/12/05 02:18:25;;;;;;;19.05;9.00;;;5.50;99.90;;;;;;5115574;28;20357;-75
2022/12/05 02:21:17;;;;;;;26.88;9.90;;;5.40;99.90;;;;;;5115260;28;20451;-75
2022/12/05 02:24:08;;;;;;;21.25;8.70;;;5.50;99.90;;;;;;5115241;28;20487;-75
2022/12/05 02:26:54;;;;;;;26.05;10.15;;;5.50;99.90;;;;;;5116501;28;20110;-75
2022/12/05 02:29:53;;;;;;;21.35;8.80;;;5.50;99.90;;;;;;5116454;28;20132;-75
2022/12/05 02:32:31;;;;;;;18.90;7.82;;;5.50;99.90;;;;;;5116184;28;20387;-75
2022/12/05 02:35:08;;;;;;;23.15;9.52;;;5.50;99.90;;;;;;5114997;28;20050;-75
2022/12/05 02:37:53;;;;;;;18.13;7.53;;;5.50;99.90;;;;;;5115064;28;20082;-75
2022/12/05 02:40:22;;;;;;;17.38;7.13;;;5.50;99.90;;;;;;5115291;28;20039;-75
2022/12/05 02:43:27;;;;;;;21.08;8.85;;;5.50;99.90;;;;;;5114729;28;20039;-75
2022/12/05 02:45:57;;;;;;;23.90;7.72;;;5.50;99.90;;;;;;5115570;28;20175;-75
2022/12/05 02:48:25;;;;;;;20.55;9.15;;;5.50;99.90;;;;;;5114885;28;20043;-75
2022/12/05 02:50:53;;;;;;;20.70;8.52;;;5.50;99.90;;;;;;5116041;28;20382;-75
2022/12/05 02:53:21;;;;;;;18.92;7.75;;;5.50;99.90;;;;;;5114633;28;20039;-75
2022/12/05 02:55:47;;;;;;;21.05;7.25;;;5.50;99.90;;;;;;5115729;28;20047;-75
2022/12/05 02:58:23;;;;;;;17.15;7.15;;;5.50;99.90;;;;;;5114598;28;20059;-75
2022/12/05 03:00:54;;;;;;;14.85;7.32;;;5.50;99.90;;;;;;5115904;28;20039;-75
2022/12/05 03:03:21;;;;;;;15.30;7.47;;;5.60;99.90;;;;;;5115789;27;20040;-75
2022/12/05 03:05:59;;;;;;;20.35;9.45;;;5.50;99.90;;;;;;5114346;28;20471;-75
2022/12/05 03:08:28;;;;;;;18.55;6.43;;;5.60;99.90;;;;;;5115652;28;20071;-75
2022/12/05 03:10:55;;;;;;;18.15;7.25;;;5.50;99.90;;;;;;5114581;28;20048;-75
2022/12/05 03:13:27;;;;;;;17.23;6.68;;;5.60;99.90;;;;;;5114124;28;20492;-75
2022/12/05 03:15:58;;;;;;;19.87;7.83;;;5.60;99.90;;;;;;5115651;28;20044;-75
2022/12/05 03:18:29;;;;;;;13.80;6.32;;;5.60;99.90;;;;;;5114216;28;20611;-75
2022/12/05 03:21:04;;;;;;;14.82;6.90;;;5.60;99.90;;;;;;5113957;28;20411;-75
2022/12/05 03:23:38;;;;;;;18.77;7.15;;;5.60;99.90;;;;;;5114109;28;20059;-75
2022/12/05 03:26:23;;;;;;;18.58;6.93;;;5.50;99.90;;;;;;5115163;28;20047;-75
2022/12/05 03:29:03;;;;;;;16.38;6.50;;;5.60;99.90;;;;;;5113968;28;20058;-75
2022/12/05 03:32:09;;;;;;;17.00;7.43;;;5.50;99.90;;;;;;5115149;28;20398;-75
2022/12/05 03:34:48;;;;;;;15.95;7.55;;;5.50;99.90;;;;;;5115205;28;20122;-75
2022/12/05 03:37:34;;;;;;;25.38;8.82;;;5.60;99.90;;;;;;5113797;28;20047;-75
2022/12/05 03:40:17;;;;;;;17.77;8.32;;;5.60;99.90;;;;;;5115029;28;20451;-75
2022/12/05 03:42:54;;;;;;;16.40;7.78;;;5.60;99.90;;;;;;5113710;28;20108;-75
2022/12/05 03:45:33;;;;;;;21.42;9.02;;;5.50;99.90;;;;;;5113597;28;20043;-75
2022/12/05 03:48:09;;;;;;;19.90;8.73;;;5.60;99.90;;;;;;5113847;28;20542;-75
2022/12/05 03:50:38;;;;;;;18.25;7.53;;;5.50;99.90;;;;;;5114928;28;20083;-75
2022/12/05 03:53:10;;;;;;;20.80;9.55;;;5.60;99.90;;;;;;5113589;28;20110;-74
2022/12/05 03:55:38;;;;;;;21.58;8.70;;;5.50;99.90;;;;;;5113382;28;20065;-75
2022/12/05 03:58:30;;;;;;;21.45;9.60;;;5.50;99.90;;;;;;5113356;28;20479;-75
2022/12/05 04:01:00;;;;;;;23.27;9.32;;;5.50;99.90;;;;;;5113421;28;20044;-75
2022/12/05 04:03:40;;;;;;;23.20;9.35;;;5.60;99.90;;;;;;5114667;28;20047;-75
2022/12/05 04:06:24;;;;;;;25.02;8.70;;;5.50;99.90;;;;;;5114413;28;20487;-75
2022/12/05 04:08:56;;;;;;;18.60;8.35;;;5.50;99.90;;;;;;5113282;28;20051;-75
2022/12/05 04:11:25;;;;;;;25.63;8.60;;;5.50;99.90;;;;;;5113611;28;20047;-75
2022/12/05 04:13:58;;;;;;;20.70;8.88;;;5.50;99.90;;;;;;5114509;28;20459;-75
2022/12/05 04:19:18;;;;;;;26.48;8.75;;;5.50;99.90;;;;;;5113007;28;20390;-75
2022/12/05 04:21:48;;;;;;;23.38;9.05;;;5.50;99.90;;;;;;5112979;28;20051;-75
2022/12/05 04:27:26;;;;;;;22.85;8.50;;;5.50;99.90;;;;;;5112918;28;20573;-75
2022/12/05 04:30:10;;;;;;;23.60;9.27;;;5.50;99.90;;;;;;5114234;28;20058;-75
2022/12/05 04:32:43;;;;;;;20.42;8.75;;;5.60;99.90;;;;;;5114297;28;20055;-75
2022/12/05 04:35:38;;;;;;;20.17;8.65;;;5.60;99.90;;;;;;5113150;28;20131;-75
2022/12/05 04:38:30;;;;;;;23.52;8.63;;;5.50;99.90;;;;;;5109067;28;20055;-75
2022/12/05 04:41:01;;;;;;;17.95;7.93;;;5.60;99.90;;;;;;5107389;28;20047;-75
2022/12/05 04:43:29;;;;;;;24.77;8.73;;;5.60;99.90;;;;;;5112925;28;20051;-75
2022/12/05 04:45:58;;;;;;;22.38;8.77;;;5.50;99.90;;;;;;5114373;28;20117;-75
2022/12/05 04:48:26;;;;;;;20.13;7.35;;;5.60;99.90;;;;;;5114088;28;20043;-75
2022/12/05 04:50:54;;;;;;;23.35;9.60;;;5.60;99.90;;;;;;5113064;28;20050;-75
2022/12/05 04:53:23;;;;;;;21.83;8.23;;;5.60;99.90;;;;;;5114138;28;20090;-75
2022/12/05 04:55:52;;;;;;;21.80;8.95;;;5.60;99.90;;;;;;5113941;28;20468;-75
2022/12/05 04:58:24;;;;;;;16.83;7.85;;;5.60;99.90;;;;;;5112849;28;20047;-75
2022/12/05 05:01:08;;;;;;;16.40;8.20;;;5.60;99.90;;;;;;5114001;28;20044;-75
2022/12/05 05:03:55;;;;;;;20.05;8.73;;;5.70;99.90;;;;;;5114209;28;20065;-75
2022/12/05 05:06:21;;;;;;;17.90;8.40;;;5.60;99.90;;;;;;5112952;28;20127;-75
2022/12/05 05:08:52;;;;;;;19.40;9.43;;;5.70;99.90;;;;;;5112497;28;20443;-75
2022/12/05 05:11:27;;;;;;;23.30;8.38;;;5.60;99.90;;;;;;5112671;28;20084;-75
2022/12/05 05:13:53;;;;;;;25.13;9.57;;;5.60;99.90;;;;;;5113954;28;20036;-75
2022/12/05 05:16:24;;;;;;;19.98;7.88;;;5.60;99.90;;;;;;5113809;28;20428;-75
2022/12/05 05:18:50;;;;;;;16.55;8.13;;;5.60;99.90;;;;;;5113855;28;20127;-75
2022/12/05 05:21:22;;;;;;;22.55;8.05;;;5.60;99.90;;;;;;5112303;28;20134;-75
2022/12/05 05:23:48;;;;;;;21.35;8.68;;;5.60;99.90;;;;;;5113601;28;20483;-75
2022/12/05 05:26:14;;;;;;;20.95;8.00;;;5.60;99.90;;;;;;5112632;28;20050;-75
2022/12/05 05:28:40;;;;;;;21.13;8.50;;;5.70;99.90;;;;;;5113659;28;20471;-75
2022/12/05 05:31:06;;;;;;;20.73;7.95;;;5.70;99.90;;;;;;5113420;28;20051;-75
2022/12/05 05:33:32;;;;;;;21.80;8.88;;;5.60;99.90;;;;;;5113523;28;20040;-74
2022/12/05 05:36:02;;;;;;;22.20;8.68;;;5.70;99.90;;;;;;5114395;28;20491;-75
2022/12/05 05:38:28;;;;;;;24.52;7.60;;;5.60;99.90;;;;;;5117479;28;20043;-75
2022/12/05 05:40:54;;;;;;;17.92;7.75;;;5.60;99.90;;;;;;5117629;28;20080;-75
2022/12/05 05:43:19;;;;;;;21.45;8.10;;;5.70;99.90;;;;;;5117054;28;20127;-75
2022/12/05 05:45:45;;;;;;;21.48;7.78;;;5.70;99.90;;;;;;5117292;28;20043;-75
2022/12/05 05:48:10;;;;;;;20.67;8.13;;;5.60;99.90;;;;;;5117327;28;20041;-75
2022/12/05 05:50:36;;;;;;;21.10;8.38;;;5.60;99.90;;;;;;5117285;28;20040;-75
2022/12/05 05:53:02;;;;;;;26.92;9.40;;;5.60;99.90;;;;;;5117283;28;20372;-75
2022/12/05 05:55:27;;;;;;;21.90;7.45;;;5.60;99.90;;;;;;5117165;28;20044;-75
2022/12/05 05:57:53;;;;;;;25.33;7.45;;;5.50;99.90;;;;;;5115788;28;20406;-75
2022/12/05 06:00:19;;;;;;;20.58;8.32;;;5.70;99.90;;;;;;5116974;28;20039;-75
2022/12/05 06:02:45;;;;;;;19.85;7.32;;;5.60;99.90;;;;;;5116941;28;20130;-75
2022/12/05 06:05:10;;;;;;;22.98;8.75;;;5.60;99.90;;;;;;5115769;28;20048;-75
2022/12/05 06:07:36;;;;;;;28.67;8.32;;;5.60;99.90;;;;;;5116839;28;20144;-75
2022/12/05 06:10:02;;;;;;;20.55;7.50;;;5.60;99.90;;;;;;5115706;28;20039;-75
2022/12/05 06:12:28;;;;;;;24.08;7.63;;;5.60;99.90;;;;;;5116831;28;20092;-75
2022/12/05 06:14:54;;;;;;;21.75;6.97;;;5.60;99.90;;;;;;5116712;28;20044;-75
2022/12/05 06:17:19;;;;;;;17.60;6.72;;;5.60;99.90;;;;;;5116628;27;20092;-74
2022/12/05 06:19:45;;;;;;;22.70;7.28;;;5.60;99.90;;;;;;5115087;28;20467;-75
2022/12/05 06:22:11;;;;;;;22.90;7.10;;;5.60;99.90;;;;;;5115243;28;20116;-75
2022/12/05 06:24:37;;;;;;;22.92;7.55;;;5.60;99.90;;;;;;5115533;28;20051;-74
2022/12/05 06:27:03;;;;;;;20.67;7.85;;;5.60;99.90;;;;;;5116585;28;20050;-75
2022/12/05 06:29:28;;;;;;;18.35;6.70;;;5.60;99.90;;;;;;5116504;28;20036;-74
2022/12/05 06:31:54;;;;;;;21.58;5.97;;;5.60;99.90;;;;;;5115933;28;20043;-75
2022/12/05 06:34:20;;;;;;;18.92;7.50;;;5.60;99.90;;;;;;5116435;28;20058;-75
2022/12/05 06:36:45;;;;;;;25.55;7.53;;;5.60;99.90;;;;;;5116252;28;20497;-75
2022/12/05 06:39:11;;;;;;;18.98;7.00;;;5.60;99.90;;;;;;5116352;28;20043;-75
2022/12/05 06:41:37;;;;;;;23.08;7.57;;;5.60;99.90;;;;;;5116283;28;20048;-75
2022/12/05 06:44:02;;;;;;;31.50;6.85;;;5.70;99.90;;;;;;5116157;28;20040;-75
2022/12/05 06:46:28;;;;;;;20.35;7.22;;;5.70;99.90;;;;;;5115029;28;20039;-75
2022/12/05 06:48:56;;;;;;;18.45;6.45;;;5.70;99.90;;;;;;5115374;28;20145;-75
2022/12/05 06:51:22;;;;;;;14.63;5.82;;;5.70;99.90;;;;;;5116160;27;20065;-75
2022/12/05 06:53:48;;;;;;;13.98;6.72;;;5.70;99.90;;;;;;5115993;28;20372;-75
2022/12/05 06:56:18;;;;;;;19.60;7.35;;;5.70;99.90;;;;;;5115935;28;20497;-75
2022/12/05 06:58:47;;;;;;;20.20;7.20;;;5.70;99.90;;;;;;5114619;28;20100;-75
2022/12/05 07:03:59;;;;;;;22.17;6.25;;;5.70;99.90;;;;;;5115832;28;20094;-75
2022/12/05 07:06:26;;;;;;;21.25;7.18;;;5.70;99.90;;;;;;5114470;28;20073;-75
2022/12/05 07:08:52;;;;;;;20.20;6.55;;;5.80;99.90;;;;;;5115726;27;20047;-75
2022/12/05 07:11:18;;;;;;;17.38;6.18;;;5.70;99.90;;;;;;5115637;28;20051;-75
2022/12/05 07:13:43;;;;;;;21.30;7.63;;;5.80;99.90;;;;;;5114481;28;20039;-75
2022/12/05 07:16:09;;;;;;;23.25;7.47;;;5.80;99.90;;;;;;5114069;28;20528;-75
2022/12/05 07:18:35;;;;;;;19.48;5.75;;;5.80;99.90;;;;;;5115533;28;20039;-75
2022/12/05 07:21:04;;;;;;;23.83;7.63;;;5.80;99.90;;;;;;5115170;28;20127;-75
2022/12/05 07:23:30;;;;;;;21.73;6.07;;;5.80;99.90;;;;;;5115378;28;20044;-75
2022/12/05 07:25:56;;;;;;;22.27;7.10;;;5.80;99.90;;;;;;5114388;28;20102;-75
2022/12/05 07:28:22;;;;;;;22.88;7.38;;;5.70;99.90;;;;;;5115187;28;20050;-75
2022/12/05 07:30:48;;;;;;;27.35;7.00;;;5.80;99.90;;;;;;5115217;28;20395;-75
2022/12/05 07:33:13;;;;;;;23.75;7.45;;;5.90;99.90;;;;;;5114161;28;20498;-75
2022/12/05 07:35:39;;;;;;;20.52;7.13;;;5.80;99.90;;;;;;5115079;28;20043;-75
2022/12/05 07:38:05;;;;;;;26.98;7.90;;;5.80;99.90;;;;;;5114979;28;20040;-75
2022/12/05 07:40:31;;;;;;;23.73;7.68;;;5.80;99.90;;;;;;5113639;28;20047;-75
2022/12/05 07:42:57;;;;;;;31.48;13.90;;;5.80;99.90;;;;;;5115247;28;20059;-75
2022/12/05 07:45:22;;;;;;;19.30;8.93;;;5.80;99.90;;;;;;5114821;28;20039;-75
2022/12/05 07:47:48;;;;;;;20.73;7.85;;;5.80;99.90;;;;;;5113630;28;20046;-75
2022/12/05 07:50:14;;;;;;;21.40;7.68;;;5.90;99.90;;;;;;5114936;28;20051;-75
2022/12/05 07:52:40;;;;;;;25.77;7.75;;;5.80;99.90;;;;;;5113633;28;20071;-75
2022/12/05 07:55:07;;;;;;;18.98;7.30;;;5.90;99.90;;;;;;5113821;28;20120;-75
2022/12/05 07:57:32;;;;;;;20.63;7.47;;;5.80;99.90;;;;;;5113361;28;20050;-75
2022/12/05 07:59:58;;;;;;;16.67;6.68;;;5.90;99.90;;;;;;5113920;28;20039;-75
2022/12/05 08:02:24;;;;;;;25.65;9.25;;;5.90;99.90;;;;;;5113050;28;20051;-75
2022/12/05 08:04:49;;;;;;;19.60;8.52;;;5.80;99.90;;;;;;5113154;28;20156;-76
2022/12/05 08:07:15;;;;;;;21.85;7.25;;;5.80;99.90;;;;;;5112909;28;20096;-76
2022/12/05 08:09:40;;;;;;;20.52;7.53;;;5.80;99.90;;;;;;5113102;28;20467;-75
2022/12/05 08:12:06;;;;;;;21.88;6.75;;;5.80;99.90;;;;;;5107245;27;20050;-75
2022/12/05 08:14:32;;;;;;;18.27;7.13;;;5.90;99.90;;;;;;5094401;28;20036;-75
2022/12/05 08:16:57;;;;;;;24.00;7.75;;;5.90;99.90;;;;;;5092509;28;20115;-75
2022/12/05 08:19:23;;;;;;;20.83;7.70;;;5.90;99.90;;;;;;5093579;28;20044;-75
2022/12/05 08:21:50;;;;;;;26.10;7.85;;;5.90;99.90;;;;;;5091733;28;20344;-75
2022/12/05 08:24:16;;;;;;;21.55;7.63;;;5.90;99.90;;;;;;5091595;28;20055;-75
2022/12/05 08:26:42;;;;;;;19.38;6.75;;;5.80;99.90;;;;;;5092541;28;20051;-75
2022/12/05 08:29:10;;;;;;;20.45;7.57;;;5.80;99.90;;;;;;5093659;28;20398;-75
2022/12/05 08:31:43;;;;;;;20.15;7.32;;;5.80;99.90;;;;;;5092440;28;20048;-75
2022/12/05 08:34:12;;;;;;;21.88;8.52;;;5.80;99.90;;;;;;5093508;28;20046;-75
2022/12/05 08:36:37;;;;;;;31.38;8.65;;;5.90;99.90;;;;;;5093333;28;20076;-75
2022/12/05 08:39:05;;;;;;;24.15;8.65;;;5.80;99.90;;;;;;5093710;28;20132;-76
2022/12/05 08:41:31;;;;;;;15.70;7.10;;;5.80;99.90;;;;;;5093378;28;20048;-76
2022/12/05 08:44:01;;;;;;;22.55;8.18;;;5.80;99.90;;;;;;5126134;28;20047;-75
2022/12/05 08:46:27;;;;;;;23.40;9.07;;;5.90;99.90;;;;;;5093354;28;20483;-75
2022/12/05 08:48:53;;;;;;;21.40;8.43;;;5.90;99.90;;;;;;5092237;28;20051;-75
2022/12/05 08:51:19;;;;;;;19.55;8.65;;;5.90;99.90;;;;;;5093463;28;20127;-75
2022/12/05 08:53:44;;;;;;;29.05;9.40;;;5.90;99.90;;;;;;5093178;28;20479;-75
2022/12/05 08:56:11;;;;;;;23.92;9.00;;;5.90;99.90;;;;;;5093356;28;20040;-75
2022/12/05 08:58:37;;;;;;;19.73;9.30;;;5.90;99.90;;;;;;5093321;28;20060;-76
2022/12/05 09:01:08;;;;;;;25.63;9.93;;;5.90;99.90;;;;;;5093488;28;20036;-75
2022/12/05 09:03:33;;;;;;;22.52;9.40;;;5.90;99.90;;;;;;5093059;28;20040;-75
2022/12/05 09:06:14;;;;;;;22.27;8.38;;;5.90;99.90;;;;;;5093595;28;20040;-75
2022/12/05 09:08:41;;;;;;;27.80;9.10;;;5.90;99.90;;;;;;5093233;28;20072;-75
2022/12/05 09:11:34;;;;;;;18.92;8.80;;;5.90;99.90;;;;;;5094389;28;20064;-75
2022/12/05 09:14:01;;;;;;;22.58;9.25;;;5.80;99.90;;;;;;5094491;28;20151;-76
2022/12/05 09:16:30;;;;;;;23.25;8.07;;;5.90;99.90;;;;;;5097344;28;20123;-75
2022/12/05 09:18:56;;;;;;;23.02;9.18;;;5.90;99.90;;;;;;5097102;28;20044;-75
2022/12/05 09:21:24;;;;;;;22.38;9.20;;;5.90;99.90;;;;;;5110727;28;20189;-75
2022/12/05 09:23:51;;;;;;;20.25;8.50;;;5.90;99.90;;;;;;5102085;28;20048;-75
2022/12/05 09:26:19;;;;;;;21.70;8.25;;;5.80;99.90;;;;;;5095855;28;20048;-75
2022/12/05 09:28:45;;;;;;;26.05;9.63;;;5.80;99.90;;;;;;5096679;28;20059;-75
2022/12/05 09:31:18;;;;;;;22.67;9.43;;;5.80;99.90;;;;;;5097129;28;20036;-75
2022/12/05 09:33:44;;;;;;;15.95;8.02;;;5.90;99.90;;;;;;5096965;28;20054;-75
2022/12/05 09:36:25;;;;;;;19.77;9.32;;;5.90;99.90;;;;;;5116631;28;20487;-76
2022/12/05 09:38:53;;;;;;;18.95;8.20;;;5.90;99.90;;;;;;5114462;28;20050;-75
2022/12/05 09:42:04;;;;;;;29.65;9.23;;;5.90;99.90;;;;;;5116717;28;20040;-75
2022/12/05 09:44:57;;;;;;;18.63;8.43;;;5.90;99.90;;;;;;5115906;28;20475;-75
2022/12/05 09:47:41;;;;;;;24.03;9.40;;;5.90;99.90;;;;;;5115890;28;20391;-75
2022/12/05 09:50:29;;;;;;;21.83;9.15;;;5.90;99.90;;;;;;5117003;28;20036;-75
2022/12/05 09:53:01;;;;;;;19.83;8.10;;;5.90;99.90;;;;;;5115865;28;20044;-75
2022/12/05 09:55:42;;;;;;;27.60;8.15;;;5.90;99.90;;;;;;5116741;28;20108;-75
2022/12/05 09:58:27;;;;;;;26.58;9.00;;;5.90;99.90;;;;;;5115836;28;20047;-76
2022/12/05 10:01:22;;;;;;;24.60;9.95;;;5.90;99.90;;;;;;5116900;28;20050;-76
2022/12/05 10:04:27;;;;;;;20.83;7.32;;;5.90;99.90;;;;;;5116612;28;20048;-76
2022/12/05 10:07:01;;;;;;;29.67;8.65;;;5.90;99.90;;;;;;5093207;28;20051;-75
2022/12/05 10:09:48;;;;;;;24.50;8.23;;;5.90;99.90;;;;;;5116616;28;20044;-75
2022/12/05 10:12:36;;;;;;;18.08;9.50;;;6.00;99.90;;;;;;5116220;28;20035;-75
2022/12/05 10:15:19;;;;;;;27.80;8.25;;;6.00;99.90;;;;;;5114105;28;20494;-75
2022/12/05 10:17:55;;;;;;;17.48;7.68;;;6.00;99.90;;;;;;5115051;28;20046;-75
2022/12/05 10:20:30;;;;;;;23.50;9.07;;;5.90;99.90;;;;;;5116075;28;20490;-76
2022/12/05 10:23:02;;;;;;;23.00;8.45;;;5.90;99.90;;;;;;5115416;28;20044;-76
2022/12/05 10:25:30;;;;;;;18.05;7.82;;;6.00;99.90;;;;;;5116095;28;20052;-76
2022/12/05 10:28:02;;;;;;;24.05;7.30;;;5.90;99.90;;;;;;5114881;28;20050;-76
2022/12/05 10:30:31;;;;;;;22.58;8.38;;;5.90;99.90;;;;;;5114849;28;20691;-76
2022/12/05 10:33:16;;;;;;;19.55;8.75;;;6.00;99.90;;;;;;5116014;28;20047;-76
2022/12/05 10:35:42;;;;;;;26.92;9.68;;;6.00;99.90;;;;;;5115708;28;20035;-76
2022/12/05 10:38:21;;;;;;;25.30;9.07;;;6.00;99.90;;;;;;5116231;28;20114;-76
2022/12/05 10:40:51;;;;;;;21.00;8.40;;;6.00;99.90;;;;;;5115672;28;20035;-76
2022/12/05 10:43:24;;;;;;;20.25;6.75;;;6.00;99.90;;;;;;5115633;28;20092;-76
2022/12/05 10:45:50;;;;;;;18.38;8.10;;;6.00;99.90;;;;;;5114794;28;20123;-76
2022/12/05 10:48:18;;;;;;;19.85;9.52;;;6.00;99.90;;;;;;5115981;28;20467;-76
2022/12/05 10:50:47;;;;;;;19.52;8.00;;;6.00;99.90;;;;;;5111395;28;20071;-76
2022/12/05 10:53:26;;;;;;;21.30;7.63;;;6.00;99.90;;;;;;5104457;28;20040;-76
2022/12/05 10:55:53;;;;;;;20.95;7.20;;;6.00;99.90;;;;;;5093908;28;20450;-76
2022/12/05 10:58:27;;;;;;;19.20;6.88;;;6.00;99.90;;;;;;5095055;28;20563;-76
2022/12/05 11:00:56;;;;;;;22.33;7.13;;;6.00;99.90;;;;;;5098739;28;20027;-75
2022/12/05 11:03:26;;;;;;;20.85;7.70;;;6.10;99.90;;;;;;5113822;28;20055;-76
2022/12/05 11:05:54;;;;;;;20.63;7.60;;;6.00;99.90;;;;;;5114360;28;20561;-76
2022/12/05 11:08:32;;;;;;;19.70;7.07;;;6.00;99.90;;;;;;5115624;28;20051;-75
2022/12/05 11:11:18;;;;;;;18.48;5.95;;;6.00;99.90;;;;;;5114611;28;20109;-79
2022/12/05 11:13:53;;;;;;;19.33;7.15;;;6.00;99.90;;;;;;5113427;28;20040;-76
2022/12/05 11:16:27;;;;;;;22.02;7.00;;;6.00;99.90;;;;;;5113995;28;20051;-76
2022/12/05 11:18:53;;;;;;;22.60;7.78;;;5.90;99.90;;;;;;5114181;27;20044;-76
2022/12/05 11:21:19;;;;;;;21.08;6.97;;;5.90;99.90;;;;;;5113827;28;20054;-76
2022/12/05 11:23:46;;;;;;;17.83;6.93;;;6.00;99.90;;;;;;5115315;28;20039;-75
2022/12/05 11:26:32;;;;;;;18.15;7.10;;;6.00;99.90;;;;;;5115396;28;20083;-76
2022/12/05 11:28:57;;;;;;;29.55;7.95;;;6.00;99.90;;;;;;5115359;27;20051;-76
2022/12/05 11:31:29;;;;;;;28.48;7.68;;;6.00;99.90;;;;;;5113998;28;20043;-76
2022/12/05 11:34:13;;;;;;;16.42;6.32;;;5.90;99.90;;;;;;5113869;28;20054;-76
2022/12/05 11:36:45;;;;;;;18.08;6.13;;;5.90;99.90;;;;;;5113973;28;20071;-76
2022/12/05 11:39:12;;;;;;;25.33;7.70;;;5.90;99.90;;;;;;5115235;28;20082;-76
2022/12/05 11:41:49;;;;;;;20.85;7.22;;;5.80;99.90;;;;;;5113571;28;20051;-76
2022/12/05 11:44:33;;;;;;;14.80;6.45;;;5.80;99.90;;;;;;5113499;28;20047;-76
2022/12/05 11:47:32;;;;;;;21.50;6.97;;;5.80;99.90;;;;;;5113754;28;20130;-76
2022/12/05 11:50:21;;;;;;;21.27;7.80;;;5.80;99.90;;;;;;5114969;28;20092;-76
2022/12/05 11:53:17;;;;;;;18.35;5.97;;;5.80;99.90;;;;;;5113743;28;20040;-76
2022/12/05 11:55:50;;;;;;;20.48;7.28;;;5.80;99.90;;;;;;5113560;28;20101;-76
2022/12/05 11:58:38;;;;;;;17.40;7.10;;;5.80;99.90;;;;;;5113540;28;20089;-76
2022/12/05 12:01:24;;;;;;;16.23;6.35;;;5.80;99.90;;;;;;5114702;28;20043;-76
2022/12/05 12:04:20;;;;;;;18.35;6.22;;;5.70;99.90;;;;;;5113221;28;20044;-75
2022/12/05 12:07:16;;;;;;;17.73;5.60;;;5.80;99.90;;;;;;5112976;28;20054;-76
2022/12/05 12:09:50;;;;;;;15.63;6.38;;;5.80;99.90;;;;;;5113127;28;20436;-76
2022/12/05 12:12:34;;;;;;;17.77;6.60;;;5.80;99.90;;;;;;5113347;28;20428;-76
2022/12/05 12:15:26;;;;;;;16.77;5.85;;;5.80;99.90;;;;;;5114382;28;20090;-76
2022/12/05 12:18:29;;;;;;;16.80;6.97;;;5.70;99.90;;;;;;5113265;28;20088;-76
2022/12/05 12:21:08;;;;;;;17.67;6.30;;;5.70;99.90;;;;;;5112858;28;20063;-76
2022/12/05 12:24:12;;;;;;;26.00;7.40;;;5.70;99.90;;;;;;5112759;28;20055;-76
2022/12/05 12:26:58;;;;;;;21.38;6.00;;;5.70;99.90;;;;;;5113146;28;20079;-76
2022/12/05 12:29:24;;;;;;;21.45;7.05;;;5.70;99.90;;;;;;5113206;28;20400;-76
2022/12/05 12:31:54;;;;;;;22.35;5.97;;;5.70;99.90;;;;;;5112783;28;20043;-76
2022/12/05 12:34:32;;;;;;;14.95;6.82;;;5.60;99.90;;;;;;5113596;28;20043;-76
2022/12/05 12:37:18;;;;;;;18.70;6.65;;;5.60;99.90;;;;;;5114232;28;20040;-76
2022/12/05 12:40:18;;;;;;;18.23;6.65;;;5.60;99.90;;;;;;5111702;28;20070;-76
2022/12/05 12:43:05;;;;;;;23.20;6.78;;;5.60;99.90;;;;;;5113725;28;20054;-76
2022/12/05 12:45:44;;;;;;;20.75;6.00;;;5.60;99.90;;;;;;5112197;28;20135;-76
2022/12/05 12:48:59;;;;;;;16.25;5.40;;;5.60;99.90;;;;;;5114141;28;20062;-76
2022/12/05 12:51:28;;;;;;;21.63;5.65;;;5.60;99.90;;;;;;5087007;28;20067;-76
2022/12/05 12:54:18;;;;;;;24.25;5.80;;;5.60;99.90;;;;;;5112342;28;20051;-76
2022/12/05 12:56:55;;;;;;;21.13;5.88;;;5.70;99.90;;;;;;5113884;28;20105;-76
2022/12/05 12:59:36;;;;;;;17.98;6.00;;;5.70;99.90;;;;;;5112816;28;20054;-76
2022/12/05 13:02:25;;;;;;;17.52;4.65;;;5.60;99.90;;;;;;5113787;28;20043;-76
2022/12/05 13:05:00;;;;;;;18.35;5.32;;;5.70;99.90;;;;;;5112722;28;20500;-76
2022/12/05 13:07:33;;;;;;;11.52;3.95;;;5.60;99.90;;;;;;5113631;28;20051;-76
2022/12/05 13:10:27;;;;;;;12.98;4.50;;;5.70;99.90;;;;;;5114023;28;20084;-76
2022/12/05 13:12:56;;;;;;;16.02;6.25;;;5.50;99.90;;;;;;5113816;28;20543;-76
2022/12/05 13:15:59;;;;;;;12.70;5.47;;;5.70;99.90;;;;;;5113844;28;20079;-76
2022/12/05 13:18:26;;;;;;;13.87;5.37;;;5.70;99.90;;;;;;5113473;28;20127;-76
2022/12/05 13:20:55;;;;;;;17.45;5.25;;;5.60;99.90;;;;;;5113326;28;20360;-76